Time;durP1;ratioP1;P1;durP2;ratioP2;P2;SDS_P1;SDS_P2;PMS_P1;PMS_P2;Temp;Humidity;BMP_temperature;BMP_pressure;BME280_temperature;BME280_humidity;BME280_pressure;Samples;Min_cycle;Max_cycle;Signal;HPM_P1;HPM_P2
2022/12/14 00:01:45;;;;;;;14.32;7.40;;;;;;;-1.49;65.34;98325.06;4827975;29;20058;-94
2022/12/14 00:04:11;;;;;;;18.17;7.65;;;;;;;-1.72;65.57;98309.38;4842717;29;20042;-94
2022/12/14 00:06:47;;;;;;;18.52;7.65;;;;;;;-1.03;65.14;98397.69;4828658;29;20069;-96
2022/12/14 00:09:16;;;;;;;15.05;6.70;;;;;;;-1.22;64.88;98361.69;4837096;29;20045;-96
2022/12/14 00:11:44;;;;;;;17.02;8.20;;;;;;;-1.53;64.88;98302.50;4847022;29;20057;-95
2022/12/14 00:14:15;;;;;;;17.80;7.82;;;;;;;-1.10;64.89;98356.91;4831133;29;20105;-94
2022/12/14 00:16:43;;;;;;;17.83;7.18;;;;;;;-1.50;64.68;98296.63;4861133;29;20053;-94
2022/12/14 00:19:10;;;;;;;15.85;6.50;;;;;;;-0.85;64.07;98415.25;4851725;29;20065;-95
2022/12/14 00:21:38;;;;;;;14.98;7.30;;;;;;;-1.51;64.41;98300.38;4872379;29;20048;-95
2022/12/14 00:24:14;;;;;;;15.20;6.47;;;;;;;-1.73;64.36;98276.38;4841679;29;20041;-95
2022/12/14 00:26:44;;;;;;;19.45;7.15;;;;;;;-1.66;65.14;98281.53;4871851;29;20036;-94
2022/12/14 00:29:12;;;;;;;18.25;8.13;;;;;;;-1.54;64.47;98282.13;4867355;29;20045;-94
2022/12/14 00:31:40;;;;;;;16.00;7.35;;;;;;;-1.59;64.76;98274.09;4812670;29;20086;-96
2022/12/14 00:34:09;;;;;;;17.20;7.72;;;;;;;-1.39;64.09;98283.28;4850419;29;20058;-96
2022/12/14 00:36:36;;;;;;;20.55;7.97;;;;;;;-1.31;63.83;98264.84;4855893;29;20066;-95
2022/12/14 00:39:05;;;;;;;20.13;7.93;;;;;;;-1.09;63.25;98290.66;4860964;29;20064;-96
2022/12/14 00:41:31;;;;;;;14.98;7.57;;;;;;;-1.22;63.65;98286.59;4864683;29;20053;-94
2022/12/14 00:43:59;;;;;;;19.50;8.38;;;;;;;-1.20;63.52;98282.56;4852723;29;20049;-96
2022/12/14 00:46:26;;;;;;;22.77;8.13;;;;;;;-0.93;63.62;98319.16;4850049;29;20037;-95
2022/12/14 00:48:53;;;;;;;15.80;7.50;;;;;;;-1.15;63.33;98246.94;4861947;29;20041;-94
2022/12/14 00:51:22;;;;;;;15.32;8.00;;;;;;;-1.16;63.00;98256.03;4845115;29;20072;-96
2022/12/14 00:53:53;;;;;;;16.42;7.43;;;;;;;-1.11;63.11;98252.59;4844013;29;20045;-95
2022/12/14 00:56:20;;;;;;;16.20;6.60;;;;;;;-0.98;63.21;98252.09;4874768;29;20052;-95
2022/12/14 00:58:50;;;;;;;;;;;;;;;-0.28;63.25;98357.19;4854094;29;20053;-95
2022/12/14 01:01:20;;;;;;;16.83;7.28;;;;;;;-0.94;63.07;98245.13;4853067;29;19924;-94
2022/12/14 01:04:15;;;;;;;18.05;7.10;;;;;;;-0.87;62.29;98215.34;4840093;29;20061;-94
2022/12/14 01:06:36;;;;;;;13.40;7.30;;;;;;;-0.99;62.43;98216.41;4839778;29;20041;-94
2022/12/14 01:09:03;;;;;;;16.30;7.00;;;;;;;-0.73;62.67;98257.53;4852987;29;20445;-96
2022/12/14 01:11:31;;;;;;;13.85;6.15;;;;;;;-1.14;62.40;98205.66;4851800;29;20362;-95
2022/12/14 01:13:58;;;;;;;15.82;6.88;;;;;;;-0.79;63.05;98284.63;4846641;29;20045;-93
2022/12/14 01:16:24;;;;;;;15.93;6.18;;;;;;;-1.40;62.77;98209.31;4847381;29;20050;-96
2022/12/14 01:18:51;;;;;;;16.73;6.60;;;;;;;-1.16;62.78;98249.88;4825228;29;20049;-96
2022/12/14 01:21:20;;;;;;;13.75;6.53;;;;;;;-1.23;62.82;98220.63;4840511;29;20351;-96
2022/12/14 01:23:50;;;;;;;12.60;6.38;;;;;;;-1.14;62.97;98237.00;4840187;29;20045;-94
2022/12/14 01:26:20;;;;;;;11.48;6.05;;;;;;;-0.89;63.00;98274.66;4835885;29;20052;-94
2022/12/14 01:28:51;;;;;;;10.95;5.45;;;;;;;-1.39;63.02;98214.41;4853553;29;20169;-95
2022/12/14 01:31:21;;;;;;;12.65;6.00;;;;;;;-0.91;62.79;98276.78;4856491;29;20096;-94
2022/12/14 01:33:50;;;;;;;16.40;6.63;;;;;;;-1.13;62.64;98233.25;4857162;29;20121;-94
2022/12/14 01:36:20;;;;;;;14.38;6.50;;;;;;;-1.46;63.18;98203.94;4838715;29;20052;-96
2022/12/14 01:38:55;;;;;;;14.50;6.20;;;;;;;-1.19;63.15;98254.72;4859887;29;20051;-95
2022/12/14 01:41:28;;;;;;;14.10;6.72;;;;;;;-1.03;63.08;98281.56;4860629;29;20048;-96
2022/12/14 01:44:00;;;;;;;13.55;6.10;;;;;;;-1.48;63.45;98203.38;4879790;29;20092;-96
2022/12/14 01:46:35;;;;;;;10.70;5.97;;;;;;;-0.81;63.24;98300.16;4876916;29;20052;-96
2022/12/14 01:49:12;;;;;;;15.73;6.88;;;;;;;-1.59;63.25;98182.97;4877420;29;20068;-94
2022/12/14 01:51:50;;;;;;;13.07;6.40;;;;;;;-1.54;63.41;98193.72;4868810;29;20071;-94
2022/12/14 01:54:20;;;;;;;11.43;6.38;;;;;;;-1.53;63.02;98184.59;4872430;29;20033;-95
2022/12/14 01:56:53;;;;;;;13.70;6.78;;;;;;;-1.03;63.07;98255.53;4879040;29;20061;-93
2022/12/14 01:59:33;;;;;;;13.27;6.32;;;;;;;-1.52;62.87;98186.22;4888772;29;20036;-95
2022/12/14 02:02:12;;;;;;;12.57;6.40;;;;;;;-1.47;62.71;98182.75;4844938;29;20032;-93
2022/12/14 02:05:04;;;;;;;15.52;6.65;;;;;;;-1.60;62.70;98173.31;4873160;29;20044;-96
2022/12/14 02:07:38;;;;;;;11.93;6.50;;;;;;;-1.79;63.25;98154.19;4870212;29;20036;-95
2022/12/14 02:10:10;;;;;;;13.23;6.85;;;;;;;-1.28;63.35;98236.72;4869566;29;20281;-95
2022/12/14 02:13:06;;;;;;;10.82;6.18;;;;;;;-1.69;63.07;98165.00;4884921;29;20060;-95
2022/12/14 02:15:36;;;;;;;12.50;6.45;;;;;;;-1.08;63.60;98265.47;4863796;29;20041;-94
2022/12/14 02:18:25;;;;;;;11.63;6.40;;;;;;;-1.86;63.97;98148.28;4870218;29;20525;-93
2022/12/14 02:21:16;;;;;;;15.95;6.72;;;;;;;-1.21;63.86;98267.56;4878474;29;20037;-96
2022/12/14 02:24:28;;;;;;;14.63;6.70;;;;;;;-1.12;63.79;98265.19;4904551;29;20048;-94
2022/12/14 02:27:14;;;;;;;11.63;6.38;;;;;;;-1.13;63.54;98263.56;4876400;29;20044;-94
2022/12/14 02:30:05;;;;;;;11.77;5.95;;;;;;;-1.13;63.25;98260.06;4861932;29;20044;-96
2022/12/14 02:32:51;;;;;;;15.73;7.20;;;;;;;-1.10;63.51;98251.50;4890880;29;20048;-96
2022/12/14 02:35:50;;;;;;;17.52;7.35;;;;;;;-1.79;63.05;98146.16;4874858;29;20037;-94
2022/12/14 02:38:55;;;;;;;16.17;7.13;;;;;;;-1.21;63.49;98262.19;4856586;29;20057;-96
2022/12/14 02:41:48;;;;;;;15.40;7.03;;;;;;;-1.70;63.68;98195.50;4873395;29;20052;-95
2022/12/14 02:44:30;;;;;;;13.55;6.80;;;;;;;-1.26;63.48;98261.34;4841914;29;20109;-95
2022/12/14 02:47:19;;;;;;;16.17;6.97;;;;;;;-1.25;63.90;98263.00;4825181;29;20064;-96
2022/12/14 02:49:59;;;;;;;15.73;7.18;;;;;;;-1.14;63.21;98258.47;4809618;29;20049;-93
2022/12/14 02:53:03;;;;;;;15.80;6.82;;;;;;;-1.95;63.43;98125.75;4813825;29;20053;-95
2022/12/14 02:55:37;;;;;;;15.73;7.45;;;;;;;-1.45;62.92;98207.41;4834858;29;20057;-95
2022/12/14 02:58:11;;;;;;;15.73;6.55;;;;;;;-1.97;63.80;98142.06;4846890;29;20052;-95
2022/12/14 03:00:38;;;;;;;15.00;6.93;;;;;;;-1.96;63.52;98114.22;4858689;29;20057;-95
2022/12/14 03:03:05;;;;;;;14.13;6.82;;;;;;;-1.79;63.16;98115.91;4842212;29;20047;-94
2022/12/14 03:05:33;;;;;;;15.65;7.35;;;;;;;-1.93;63.02;98115.56;4823948;29;20042;-95
2022/12/14 03:08:15;;;;;;;;;;;;;;;-1.16;62.85;98220.38;4832625;29;20050;-95
2022/12/14 03:10:50;;;;;;;16.60;6.97;;;;;;;-1.94;62.76;98109.41;4824786;29;19927;-94
2022/12/14 03:13:25;;;;;;;17.40;7.10;;;;;;;-1.47;62.46;98183.53;4823908;29;20050;-95
2022/12/14 03:16:08;;;;;;;14.95;6.30;;;;;;;-1.21;62.64;98218.50;4825104;29;20050;-95
2022/12/14 03:18:40;;;;;;;15.05;7.47;;;;;;;-1.58;62.48;98165.03;4823910;29;20058;-95
2022/12/14 03:21:14;;;;;;;15.82;6.93;;;;;;;-1.53;61.94;98179.22;4825345;29;20058;-95
2022/12/14 03:23:47;;;;;;;18.45;7.55;;;;;;;-1.97;62.02;98098.44;4845542;29;20060;-95
2022/12/14 03:26:32;;;;;;;16.98;7.40;;;;;;;-2.16;62.41;98080.13;4847583;29;20029;-96
2022/12/14 03:29:17;;;;;;;16.15;6.80;;;;;;;-1.92;62.16;98091.22;4832465;29;20567;-94
2022/12/14 03:32:02;;;;;;;14.23;6.80;;;;;;;-1.88;61.49;98091.50;4857461;29;20038;-94
2022/12/14 03:35:15;;;;;;;;;;;;;;;;;;;;;
2022/12/14 03:38:48;;;;;;;12.55;6.30;;;;;;;-1.33;60.98;98165.09;4843747;29;20060;-96
2022/12/14 03:42:06;;;;;;;13.90;7.10;;;;;;;-1.87;61.17;98086.97;4831407;29;20053;-95
2022/12/14 03:44:38;;;;;;;20.00;7.65;;;;;;;-1.24;61.38;98197.56;4880309;29;20052;-95
2022/12/14 03:48:01;;;;;;;14.45;6.78;;;;;;;-1.20;61.24;98209.38;4883822;29;20045;-94
2022/12/14 03:51:17;;;;;;;19.83;7.50;;;;;;;-1.88;60.95;98106.78;4874943;29;20048;-95
2022/12/14 04:00:19;;;;;;;13.02;6.75;;;;;;;-1.30;60.99;98174.50;4814442;29;20057;-94
2022/12/14 04:03:15;;;;;;;14.02;7.07;;;;;;;-1.08;61.33;98185.03;4796563;29;20059;-94
2022/12/14 04:06:17;;;;;;;16.55;6.88;;;;;;;-1.64;60.75;98080.34;4801062;29;20048;-94
2022/12/14 04:08:57;;;;;;;18.00;7.53;;;;;;;-1.40;61.04;98113.63;4812808;29;20046;-95
2022/12/14 04:20:37;;;;;;;15.70;8.20;;;;;;;-0.57;60.06;98177.03;5054090;23;20067;-95
2022/12/14 04:26:53;;;;;;;16.08;8.25;;;;;;;-1.29;60.59;98079.59;4809090;29;20031;-95
2022/12/14 04:29:57;;;;;;;20.48;8.25;;;;;;;-1.42;60.65;98067.53;4815758;29;20050;-94
2022/12/14 04:37:15;;;;;;;18.27;8.30;;;;;;;-0.69;60.82;98176.50;4774175;29;20059;-93
2022/12/14 04:40:14;;;;;;;16.30;7.90;;;;;;;-0.63;60.69;98189.66;4775677;30;20067;-94
2022/12/14 04:43:16;;;;;;;16.63;8.35;;;;;;;-1.28;60.33;98073.19;4808850;29;20051;-95
2022/12/14 04:46:14;;;;;;;15.20;7.45;;;;;;;-1.38;59.89;98068.59;4793156;30;20055;-94
2022/12/14 04:49:04;;;;;;;16.55;7.93;;;;;;;-1.37;60.61;98078.25;4789975;29;20066;-96
2022/12/14 04:51:53;;;;;;;18.00;8.90;;;;;;;-0.54;60.21;98185.34;4774058;30;20054;-95
2022/12/14 04:55:15;;;;;;;18.20;9.23;;;;;;;-0.40;60.02;98184.81;4787838;30;20056;-96
2022/12/14 04:58:20;;;;;;;19.58;8.80;;;;;;;-0.76;59.26;98104.31;4785088;29;20119;-95
2022/12/14 05:01:57;;;;;;;21.33;8.90;;;;;;;-0.35;59.90;98176.75;4768440;30;20055;-96
2022/12/14 05:04:55;;;;;;;23.05;8.65;;;;;;;-0.40;59.71;98172.19;4777518;30;20055;-95
2022/12/14 05:07:51;;;;;;;19.73;9.27;;;;;;;-0.30;59.71;98174.06;4802155;29;20104;-96
2022/12/14 05:10:54;;;;;;;25.60;9.65;;;;;;;-0.55;59.54;98138.13;4822298;29;20107;-95
2022/12/14 05:13:38;;;;;;;;;;;;;;;-0.35;59.91;98171.38;4824842;29;20122;-95
2022/12/14 05:16:31;;;;;;;19.42;9.52;;;;;;;-1.08;60.07;98077.75;4792817;29;19936;-95
2022/12/14 05:20:29;;;;;;;20.75;9.70;;;;;;;-0.34;59.82;98171.09;4809786;29;20055;-96
2022/12/14 05:28:00;;;;;;;21.25;9.82;;;;;;;-0.82;59.14;98049.84;4820716;29;20122;-94
2022/12/14 05:34:49;;;;;;;20.08;9.40;;;;;;;-0.99;59.77;98068.09;4933369;29;20063;-94
2022/12/14 05:38:06;;;;;;;16.85;8.80;;;;;;;-0.50;59.10;98123.88;4908439;29;20055;-96
2022/12/14 05:40:52;;;;;;;18.45;9.25;;;;;;;-0.36;58.54;98138.38;4906451;29;20099;-96
2022/12/14 05:44:01;;;;;;;19.35;9.07;;;;;;;-0.27;58.69;98157.41;4917292;29;20060;-96
2022/12/14 05:53:18;;;;;;;19.60;9.07;;;;;;;-0.17;58.58;98143.16;4862546;29;20489;-94
2022/12/14 05:56:11;;;;;;;18.73;9.57;;;;;;;-0.28;58.57;98126.25;4861850;29;20057;-96
2022/12/14 05:58:48;;;;;;;20.13;9.90;;;;;;;-0.48;58.49;98095.69;4816314;29;20045;-96
2022/12/14 06:02:01;;;;;;;19.40;9.43;;;;;;;-0.79;58.71;98048.50;4851476;29;20062;-96
2022/12/14 06:04:49;;;;;;;18.63;9.23;;;;;;;-0.80;58.44;98044.19;4862826;29;20053;-96
2022/12/14 06:07:53;;;;;;;27.30;11.10;;;;;;;-0.02;58.44;98175.38;5117717;23;21229;-94
2022/12/14 06:26:06;;;;;;;22.25;10.18;;;;;;;-0.17;57.85;98127.03;4936219;29;20052;-95
2022/12/14 06:45:46;;;;;;;26.45;12.02;;;;;;;0.59;57.10;98191.28;4911622;29;20061;-95
2022/12/14 06:48:16;;;;;;;28.05;12.32;;;;;;;0.17;56.99;98130.72;4854075;29;20060;-96
2022/12/14 06:50:42;;;;;;;30.03;12.53;;;;;;;-0.10;57.21;98087.28;4870300;29;20048;-95
2022/12/14 06:53:17;;;;;;;30.90;12.27;;;;;;;0.15;57.64;98138.25;4869310;29;20352;-95
2022/12/14 06:55:47;;;;;;;27.27;11.85;;;;;;;-0.20;57.14;98080.03;4886606;29;20032;-95
2022/12/14 06:58:15;;;;;;;25.38;12.10;;;;;;;-0.12;57.25;98084.06;4867386;29;20112;-95
2022/12/14 07:14:16;;;;;;;28.80;11.93;;;;;;;0.34;56.98;98172.59;5048300;23;20052;-96
2022/12/14 07:16:55;;;;;;;27.85;11.55;;;;;;;0.45;56.59;98183.03;4920610;29;20052;-96
2022/12/14 07:20:10;;;;;;;24.40;11.52;;;;;;;0.13;57.00;98143.09;4951855;29;20043;-93
2022/12/14 07:22:47;;;;;;;27.30;12.32;;;;;;;0.70;57.04;98233.22;4936360;29;20058;-96
2022/12/14 07:25:42;;;;;;;21.02;10.98;;;;;;;0.51;56.64;98204.53;4926564;28;20075;-95
2022/12/14 07:28:11;;;;;;;26.77;11.75;;;;;;;0.10;56.69;98137.44;4883487;29;20052;-95
2022/12/14 07:30:39;;;;;;;21.08;10.35;;;;;;;0.08;56.40;98123.50;4889211;29;20060;-94
2022/12/14 07:33:12;;;;;;;21.95;10.77;;;;;;;0.57;56.91;98196.16;4876365;29;20047;-91
2022/12/14 07:36:49;;;;;;;19.13;10.35;;;;;;;0.88;56.08;98244.44;4924242;29;20038;-93
2022/12/14 07:39:19;;;;;;;26.67;11.23;;;;;;;0.03;56.14;98137.72;4846541;29;20089;-95
2022/12/14 07:42:11;;;;;;;21.67;10.93;;;;;;;0.18;56.07;98137.69;4905935;29;20058;-93
2022/12/14 07:44:41;;;;;;;26.58;11.77;;;;;;;0.27;56.27;98156.75;4873845;29;20294;-94
2022/12/14 07:47:14;;;;;;;23.27;10.35;;;;;;;0.14;56.16;98150.06;4889748;29;20060;-92
2022/12/14 07:49:41;;;;;;;22.60;11.48;;;;;;;0.65;56.35;98218.97;4819566;29;20053;-93
2022/12/14 07:52:08;;;;;;;30.23;12.00;;;;;;;0.29;55.93;98161.84;4832258;29;20051;-93
2022/12/14 07:54:35;;;;;;;26.55;11.90;;;;;;;0.57;55.83;98201.53;4815648;29;20320;-95
2022/12/14 07:57:13;;;;;;;27.77;12.40;;;;;;;0.36;55.79;98175.78;4829360;29;20057;-95
2022/12/14 08:00:31;;;;;;;24.35;11.10;;;;;;;0.21;56.23;98149.78;4813636;29;20087;-96
2022/12/14 08:03:19;;;;;;;29.70;12.65;;;;;;;0.60;55.69;98181.38;4831470;29;20039;-95
2022/12/14 08:05:50;;;;;;;31.27;13.05;;;;;;;1.02;55.88;98248.13;4811613;29;20033;-95
2022/12/14 08:08:29;;;;;;;32.45;13.55;;;;;;;1.14;55.10;98253.19;4836509;29;20045;-95
2022/12/14 08:11:40;;;;;;;32.53;13.07;;;;;;;0.52;55.69;98201.53;4842175;29;20085;-95
2022/12/14 08:15:21;;;;;;;26.35;13.65;;;;;;;0.50;55.58;98201.03;4859015;29;20063;-93
2022/12/14 08:17:59;;;;;;;28.75;12.90;;;;;;;1.07;55.92;98285.00;4889023;29;20033;-96
2022/12/14 08:21:00;;;;;;;27.70;12.50;;;;;;;0.63;56.13;98213.88;4891335;29;20033;-96
2022/12/14 08:24:08;;;;;;;24.77;11.63;;;;;;;0.96;55.77;98259.19;4837158;29;20054;-96
2022/12/14 08:27:13;;;;;;;25.17;12.25;;;;;;;0.40;55.90;98174.19;4819459;29;20058;-96
2022/12/14 08:30:34;;;;;;;28.92;13.05;;;;;;;1.23;55.60;98283.84;4869915;24;20094;-95
2022/12/14 08:33:24;;;;;;;28.00;13.20;;;;;;;0.49;56.39;98199.41;4866419;29;20038;-96
2022/12/14 08:36:28;;;;;;;28.35;13.27;;;;;;;0.47;56.51;98188.13;4814695;29;20046;-95
2022/12/14 08:39:22;;;;;;;21.05;11.05;;;;;;;0.32;56.68;98229.28;5017206;23;20056;-96
2022/12/14 08:41:48;;;;;;;20.08;10.57;;;;;;;0.09;57.52;98236.06;4859763;29;20073;-95
2022/12/14 08:44:16;;;;;;;;;;;;;;;0.51;58.42;98312.88;4894577;29;20096;-94
2022/12/14 08:46:44;;;;;;;33.70;10.52;;;;;;;0.13;58.52;98307.00;4900577;29;19990;-96
2022/12/14 08:49:17;;;;;;;22.65;11.30;;;;;;;-0.47;59.08;98230.69;4901685;29;20033;-94
2022/12/14 08:51:45;;;;;;;25.55;11.43;;;;;;;-0.39;58.89;98208.72;4895948;29;20048;-94
2022/12/14 08:54:14;;;;;;;24.15;10.95;;;;;;;0.02;59.30;98310.75;4901942;29;20055;-93
2022/12/14 08:56:41;;;;;;;24.80;11.68;;;;;;;-0.67;59.44;98203.84;4889053;29;20052;-92
2022/12/14 08:59:10;;;;;;;22.08;11.25;;;;;;;-0.20;59.61;98294.09;4919883;29;20050;-94
2022/12/14 09:01:36;;;;;;;26.30;11.48;;;;;;;-0.24;60.22;98301.88;4901262;29;20040;-92
2022/12/14 09:04:06;;;;;;;26.83;11.95;;;;;;;-0.83;59.72;98214.59;4921612;29;20056;-94
2022/12/14 09:06:37;;;;;;;34.42;12.90;;;;;;;-0.32;60.19;98291.69;4891599;29;20048;-92
2022/12/14 09:09:19;;;;;;;30.95;13.90;;;;;;;-0.89;60.96;98266.59;4877714;29;20053;-92
2022/12/14 09:11:48;;;;;;;30.23;13.88;;;;;;;-0.61;61.62;98308.25;4874861;29;20057;-92
2022/12/14 09:14:24;;;;;;;30.17;13.55;;;;;;;-0.41;62.64;98366.56;5127676;23;20044;-95
2022/12/14 09:16:53;;;;;;;37.78;13.43;;;;;;;-1.15;62.61;98246.94;4881498;29;20040;-95
2022/12/14 09:19:57;;;;;;;29.98;12.65;;;;;;;-0.79;62.16;98306.06;4882756;29;20048;-94
2022/12/14 09:22:47;;;;;;;31.45;13.77;;;;;;;-1.37;63.34;98244.44;5272944;23;20060;-95
2022/12/14 09:25:15;;;;;;;31.30;13.23;;;;;;;-1.17;63.04;98270.53;4864218;29;20045;-94
2022/12/14 09:27:51;;;;;;;31.92;12.45;;;;;;;-0.86;63.06;98309.00;4889251;29;20076;-95
2022/12/14 09:30:19;;;;;;;31.98;13.25;;;;;;;-0.75;63.23;98345.53;4898176;29;20039;-95
2022/12/14 09:32:46;;;;;;;30.33;12.27;;;;;;;-0.73;63.45;98351.44;4867584;29;20044;-94
2022/12/14 09:35:15;;;;;;;30.65;12.90;;;;;;;-0.76;63.18;98359.22;4873735;29;20029;-95
2022/12/14 09:37:45;;;;;;;27.30;11.95;;;;;;;-0.76;62.88;98364.59;4839920;29;20049;-94
2022/12/14 09:40:17;;;;;;;26.58;11.30;;;;;;;-0.90;62.66;98361.56;4862787;29;20570;-95
2022/12/14 09:43:05;;;;;;;25.88;10.95;;;;;;;-0.49;62.03;98420.78;4849591;29;20065;-95
2022/12/14 09:45:44;;;;;;;18.90;9.15;;;;;;;-0.56;62.38;98420.22;4901150;29;20051;-94
2022/12/14 09:48:23;;;;;;;21.73;9.75;;;;;;;-0.87;61.98;98381.69;4854136;29;20057;-95
2022/12/14 09:50:58;;;;;;;22.40;10.60;;;;;;;-1.19;61.95;98342.38;4848927;29;20056;-94
2022/12/14 09:53:29;;;;;;;23.88;10.32;;;;;;;-1.48;62.29;98321.31;4851893;29;20078;-94
2022/12/14 09:56:47;;;;;;;27.83;10.48;;;;;;;-0.90;62.17;98384.88;4883291;29;20117;-94
2022/12/14 09:59:17;;;;;;;22.13;9.93;;;;;;;-1.19;62.32;98386.09;4862477;29;20080;-93
2022/12/14 10:01:58;;;;;;;21.33;10.45;;;;;;;-0.94;62.93;98465.06;4879846;29;20041;-94
2022/12/14 10:04:40;;;;;;;24.90;11.55;;;;;;;-1.39;63.24;98383.28;4866040;29;20099;-94
2022/12/14 10:07:19;;;;;;;24.80;11.85;;;;;;;-1.00;62.78;98474.16;4865302;29;20051;-90
2022/12/14 10:10:12;;;;;;;26.00;11.93;;;;;;;-0.84;64.35;98467.03;4864152;29;20052;-92
2022/12/14 10:13:00;;;;;;;22.13;10.43;;;;;;;-0.94;62.95;98470.44;4859902;29;20065;-92
2022/12/14 10:15:39;;;;;;;25.92;11.52;;;;;;;-0.83;62.90;98482.03;4861959;29;20135;-90
2022/12/14 10:18:21;;;;;;;26.02;10.73;;;;;;;-1.05;63.30;98444.63;4860133;29;20558;-91
2022/12/14 10:21:05;;;;;;;21.60;9.80;;;;;;;-1.11;63.58;98478.66;4866700;29;20054;-90
2022/12/14 10:23:34;;;;;;;23.60;10.95;;;;;;;-1.12;63.82;98477.03;4836560;29;20034;-88
2022/12/14 10:26:07;;;;;;;32.63;11.25;;;;;;;-0.87;64.37;98483.63;4818022;29;20058;-90
2022/12/14 10:28:45;;;;;;;22.10;9.35;;;;;;;-0.78;63.58;98501.69;4834096;29;20106;-91
2022/12/14 10:31:47;;;;;;;25.08;10.15;;;;;;;-0.80;63.97;98522.56;4852311;29;20050;-91
2022/12/14 10:34:23;;;;;;;22.40;11.18;;;;;;;-0.89;63.95;98509.91;4825640;29;20099;-91
2022/12/14 10:36:54;;;;;;;30.63;10.80;;;;;;;-1.34;64.96;98465.59;4834740;29;20141;-91
2022/12/14 10:39:35;;;;;;;20.90;10.35;;;;;;;-0.94;64.55;98534.81;4836169;29;20046;-91
2022/12/14 10:42:18;;;;;;;23.05;10.45;;;;;;;-0.95;64.67;98544.75;4826985;29;20046;-89
2022/12/14 10:45:04;;;;;;;19.65;8.65;;;;;;;-1.52;65.14;98494.41;4827488;29;20524;-90
2022/12/14 10:47:39;;;;;;;21.03;9.50;;;;;;;-1.23;65.63;98529.75;4821198;29;20056;-91
2022/12/14 10:50:45;;;;;;;22.67;10.45;;;;;;;-1.02;65.42;98559.47;4835826;29;20042;-90
2022/12/14 10:53:19;;;;;;;23.23;9.73;;;;;;;-1.48;65.18;98492.03;4835033;29;20070;-91
2022/12/14 10:55:51;;;;;;;21.08;9.63;;;;;;;-1.63;65.07;98467.75;4806938;29;20117;-93
2022/12/14 10:58:23;;;;;;;22.50;8.77;;;;;;;-0.83;64.66;98579.47;4837946;29;20049;-90
2022/12/14 11:00:53;;;;;;;23.58;10.15;;;;;;;-0.88;65.09;98575.94;4859165;29;20100;-92
2022/12/14 11:03:21;;;;;;;25.05;10.57;;;;;;;-1.14;66.87;98524.75;4845188;29;20049;-92
2022/12/14 11:06:01;;;;;;;17.75;7.85;;;;;;;-1.00;66.27;98533.97;4847129;29;20151;-90
2022/12/14 11:11:36;;;;;;;13.27;6.43;;;;;;;-1.47;65.62;98499.00;4956657;23;20071;-95
2022/12/14 11:14:12;;;;;;;14.38;7.38;;;;;;;-1.25;66.54;98563.28;5094347;23;20056;-94
2022/12/14 11:16:51;;;;;;;21.20;7.55;;;;;;;-1.43;67.17;98521.53;5121437;23;20061;-94
2022/12/14 11:19:41;;;;;;;15.77;7.70;;;;;;;-1.20;66.26;98544.53;5133680;23;20041;-93
2022/12/14 11:22:16;;;;;;;16.10;6.50;;;;;;;-1.36;65.88;98516.78;4881334;29;20112;-95
2022/12/14 11:25:40;;;;;;;18.13;7.07;;;;;;;-1.32;65.91;98538.56;4888207;29;20057;-95
2022/12/14 11:28:51;;;;;;;11.60;5.82;;;;;;;-1.58;66.61;98540.19;4878814;29;20048;-94
2022/12/14 11:31:22;;;;;;;14.18;6.82;;;;;;;-0.95;67.28;98680.75;4903586;29;20074;-95
2022/12/14 11:37:48;;;;;;;13.65;5.82;;;;;;;-0.81;67.79;98683.84;4895944;29;20044;-94
2022/12/14 11:40:27;;;;;;;25.27;6.93;;;;;;;-1.14;66.62;98656.16;4888903;29;20029;-95
2022/12/14 11:43:07;;;;;;;8.68;4.00;;;;;;;-1.72;66.19;98582.66;4874197;29;20051;-93
2022/12/14 11:45:41;;;;;;;29.38;7.65;;;;;;;-1.57;67.65;98644.44;4887088;29;20035;-94
2022/12/14 11:48:12;;;;;;;9.50;4.50;;;;;;;-1.04;66.95;98720.63;4878370;29;20036;-93
2022/12/14 11:50:56;;;;;;;7.88;4.00;;;;;;;-1.51;66.49;98647.97;4924768;29;20032;-93
2022/12/14 11:53:27;;;;;;;6.90;3.72;;;;;;;-1.65;66.47;98618.09;4876668;29;20035;-92
2022/12/14 11:56:00;;;;;;;11.43;4.60;;;;;;;-1.11;65.81;98701.25;4874216;29;20048;-93
2022/12/14 11:58:53;;;;;;;6.53;3.50;;;;;;;-0.78;65.46;98761.97;4900248;29;20060;-93
2022/12/14 12:01:55;;;;;;;5.25;2.65;;;;;;;-1.85;64.98;98625.84;4865540;29;20119;-94
2022/12/14 12:04:43;;;;;;;3.70;1.95;;;;;;;-1.40;65.43;98761.50;4824317;29;20088;-94
2022/12/14 12:07:47;;;;;;;13.27;3.60;;;;;;;-1.37;65.87;98785.13;4824508;29;20055;-93
2022/12/14 12:10:52;;;;;;;1.90;1.10;;;;;;;-2.05;66.04;98712.09;4841264;29;20039;-94
2022/12/14 12:14:12;;;;;;;5.38;2.78;;;;;;;-1.54;65.87;98799.38;4793267;29;20323;-93
2022/12/14 12:17:04;;;;;;;2.90;1.73;;;;;;;-2.02;65.29;98738.38;4829462;29;20065;-94
2022/12/14 12:20:13;;;;;;;4.32;2.17;;;;;;;-2.46;66.01;98690.06;4776456;30;20039;-94
2022/12/14 12:23:18;;;;;;;2.60;1.58;;;;;;;-1.80;66.33;98837.56;4791761;29;20044;-95
2022/12/14 12:26:18;;;;;;;4.43;2.20;;;;;;;-2.53;66.81;98732.22;4776358;30;20056;-94
2022/12/14 12:29:15;;;;;;;4.13;1.95;;;;;;;-2.62;66.92;98734.47;4775270;30;20047;-93
2022/12/14 12:32:29;;;;;;;5.32;2.45;;;;;;;-2.01;67.21;98820.38;4801426;29;20026;-94
2022/12/14 12:35:26;;;;;;;3.53;1.85;;;;;;;-1.87;67.57;98869.88;4795068;29;20146;-93
2022/12/14 12:38:28;;;;;;;8.02;3.20;;;;;;;-2.68;68.22;98749.66;4778261;29;20111;-93
2022/12/14 12:41:19;;;;;;;5.10;2.55;;;;;;;-1.85;67.89;98891.88;4763939;29;20504;-94
2022/12/14 12:44:23;;;;;;;4.45;2.10;;;;;;;-2.35;67.46;98828.38;4772497;30;20075;-92
2022/12/14 12:47:03;;;;;;;10.63;2.75;;;;;;;-2.46;67.64;98813.16;4718756;30;20661;-94
2022/12/14 12:49:39;;;;;;;8.23;2.53;;;;;;;-2.37;66.87;98841.97;4764610;29;20060;-93
2022/12/14 12:52:30;;;;;;;7.80;3.10;;;;;;;-2.68;67.47;98789.78;4876209;29;20060;-94
2022/12/14 12:55:20;;;;;;;4.55;2.30;;;;;;;-2.00;66.55;98931.78;4814875;29;20073;-91
2022/12/14 12:57:50;;;;;;;7.72;2.50;;;;;;;-2.32;67.07;98883.25;4828155;29;20054;-92
2022/12/14 13:00:21;;;;;;;9.50;2.80;;;;;;;-2.05;66.99;98945.06;4818507;29;20573;-91
2022/12/14 13:03:36;;;;;;;7.38;3.28;;;;;;;-2.17;67.36;98958.53;4806577;29;20130;-92
2022/12/14 13:06:24;;;;;;;7.30;3.53;;;;;;;-2.27;67.35;98945.75;4835908;29;20171;-92
2022/12/14 13:08:57;;;;;;;9.63;4.40;;;;;;;-2.66;67.30;98889.31;4833488;29;20063;-91
2022/12/14 13:11:37;;;;;;;13.32;7.22;;;;;;;-2.28;67.15;98975.47;4877750;29;20047;-92
2022/12/14 13:14:29;;;;;;;9.07;4.95;;;;;;;-2.25;67.09;98982.97;4856348;29;20053;-93
2022/12/14 13:16:59;;;;;;;7.25;3.75;;;;;;;-2.84;66.91;98901.00;4861780;29;20077;-91
2022/12/14 13:19:47;;;;;;;14.23;5.65;;;;;;;-2.57;67.29;98950.50;4894088;29;20124;-92
2022/12/14 13:22:17;;;;;;;17.13;6.40;;;;;;;-2.87;67.37;98920.19;4874535;29;20052;-92
2022/12/14 13:24:50;;;;;;;15.10;6.25;;;;;;;-2.59;67.49;98977.47;4876378;29;20047;-93
2022/12/14 13:27:28;;;;;;;12.85;5.65;;;;;;;-2.38;67.46;99018.88;4891039;29;20052;-93
2022/12/14 13:30:25;;;;;;;6.68;3.58;;;;;;;-2.65;68.25;98995.31;4874073;29;20098;-91
2022/12/14 13:33:29;;;;;;;12.75;6.43;;;;;;;-2.93;67.95;98947.06;4880178;29;20048;-94
2022/12/14 13:36:23;;;;;;;10.60;5.40;;;;;;;-2.86;68.11;98956.59;4864534;29;20044;-93
2022/12/14 13:39:27;;;;;;;14.80;6.90;;;;;;;-2.68;68.03;98985.06;4850754;29;20045;-94
2022/12/14 13:42:11;;;;;;;11.65;5.32;;;;;;;-2.21;67.77;99054.59;4858606;29;20048;-92
2022/12/14 13:45:03;;;;;;;16.17;5.95;;;;;;;-2.26;68.18;99038.41;4855186;29;20060;-93
2022/12/14 13:47:49;;;;;;;15.55;4.47;;;;;;;-2.33;68.23;99012.81;4865871;29;20104;-92
2022/12/14 13:50:32;;;;;;;17.70;6.40;;;;;;;-2.19;67.75;99027.56;4877679;29;20053;-93
2022/12/14 13:53:03;;;;;;;8.32;3.08;;;;;;;-2.36;67.49;99025.63;4877504;29;20096;-95
2022/12/14 13:55:45;;;;;;;4.97;2.75;;;;;;;-2.05;67.87;99085.19;4894935;29;20052;-91
2022/12/14 13:58:33;;;;;;;9.65;4.78;;;;;;;-2.56;67.93;98997.63;4880173;29;20040;-93
2022/12/14 14:01:08;;;;;;;13.15;4.85;;;;;;;-2.10;67.76;99070.84;4848997;29;20040;-92
2022/12/14 14:03:43;;;;;;;6.30;3.30;;;;;;;-2.02;67.92;99089.22;4845546;29;20140;-91
2022/12/14 14:06:22;;;;;;;14.18;5.32;;;;;;;-2.26;68.07;99067.03;4873402;29;20290;-93
2022/12/14 14:08:52;;;;;;;15.15;5.28;;;;;;;-2.11;68.26;99085.31;4863870;29;20060;-93
2022/12/14 14:11:21;;;;;;;13.50;5.05;;;;;;;-1.92;68.00;99116.22;4867924;29;20048;-91
2022/12/14 14:14:17;;;;;;;16.65;5.80;;;;;;;-2.21;67.85;99043.88;4861501;29;20058;-93